sensor_id;sensor_type;location;lat;lon;timestamp;pressure;altitude;pressure_sealevel;temperature
51149;BMP280;37210;50.058;8.688;2023-08-06T00:02:07;99327.44;;;19.33
51149;BMP280;37210;50.058;8.688;2023-08-06T00:04:34;99319.69;;;19.29
51149;BMP280;37210;50.058;8.688;2023-08-06T00:07:02;99314.13;;;19.35
51149;BMP280;37210;50.058;8.688;2023-08-06T00:09:30;99321.00;;;19.56
51149;BMP280;37210;50.058;8.688;2023-08-06T00:11:59;99318.66;;;19.50
51149;BMP280;37210;50.058;8.688;2023-08-06T00:14:27;99303.84;;;19.46
51149;BMP280;37210;50.058;8.688;2023-08-06T00:16:54;99320.56;;;19.29
51149;BMP280;37210;50.058;8.688;2023-08-06T00:19:22;99312.41;;;19.34
51149;BMP280;37210;50.058;8.688;2023-08-06T00:21:49;99307.72;;;19.03
51149;BMP280;37210;50.058;8.688;2023-08-06T00:24:16;99306.38;;;18.94
51149;BMP280;37210;50.058;8.688;2023-08-06T00:26:44;99301.91;;;18.78
51149;BMP280;37210;50.058;8.688;2023-08-06T00:29:12;99284.13;;;18.80
51149;BMP280;37210;50.058;8.688;2023-08-06T00:31:40;99294.44;;;18.50
51149;BMP280;37210;50.058;8.688;2023-08-06T00:34:07;99269.81;;;18.84
51149;BMP280;37210;50.058;8.688;2023-08-06T00:36:35;99282.94;;;19.04
51149;BMP280;37210;50.058;8.688;2023-08-06T00:39:02;99278.22;;;19.10
51149;BMP280;37210;50.058;8.688;2023-08-06T00:41:30;99276.91;;;18.83
51149;BMP280;37210;50.058;8.688;2023-08-06T00:43:57;99269.16;;;18.97
51149;BMP280;37210;50.058;8.688;2023-08-06T00:46:27;99280.31;;;19.04
51149;BMP280;37210;50.058;8.688;2023-08-06T00:48:55;99261.16;;;18.80
51149;BMP280;37210;50.058;8.688;2023-08-06T00:51:24;99264.63;;;18.99
51149;BMP280;37210;50.058;8.688;2023-08-06T00:53:52;99262.13;;;19.13
51149;BMP280;37210;50.058;8.688;2023-08-06T00:56:20;99266.59;;;18.96
51149;BMP280;37210;50.058;8.688;2023-08-06T00:58:47;99246.72;;;19.04
51149;BMP280;37210;50.058;8.688;2023-08-06T01:01:15;99243.28;;;19.20
51149;BMP280;37210;50.058;8.688;2023-08-06T01:03:44;99255.44;;;19.06
51149;BMP280;37210;50.058;8.688;2023-08-06T01:06:14;99242.53;;;18.65
51149;BMP280;37210;50.058;8.688;2023-08-06T01:08:55;99149.06;;;18.25
51149;BMP280;37210;50.058;8.688;2023-08-06T01:11:32;99249.00;;;18.76
51149;BMP280;37210;50.058;8.688;2023-08-06T01:14:08;99237.97;;;18.85
51149;BMP280;37210;50.058;8.688;2023-08-06T01:16:42;99233.81;;;18.80
51149;BMP280;37210;50.058;8.688;2023-08-06T01:19:17;99144.28;;;18.33
51149;BMP280;37210;50.058;8.688;2023-08-06T01:21:46;99209.25;;;18.76
51149;BMP280;37210;50.058;8.688;2023-08-06T01:24:14;99221.81;;;19.07
51149;BMP280;37210;50.058;8.688;2023-08-06T01:26:44;99217.63;;;19.03
51149;BMP280;37210;50.058;8.688;2023-08-06T01:29:21;99225.50;;;18.52
51149;BMP280;37210;50.058;8.688;2023-08-06T01:31:52;99215.81;;;18.51
51149;BMP280;37210;50.058;8.688;2023-08-06T01:34:24;99222.13;;;18.67
51149;BMP280;37210;50.058;8.688;2023-08-06T01:36:56;99219.84;;;18.22
51149;BMP280;37210;50.058;8.688;2023-08-06T01:39:25;99218.47;;;18.51
51149;BMP280;37210;50.058;8.688;2023-08-06T01:41:52;99212.56;;;18.81
51149;BMP280;37210;50.058;8.688;2023-08-06T01:44:20;99211.66;;;18.64
51149;BMP280;37210;50.058;8.688;2023-08-06T01:46:47;99209.75;;;19.01
51149;BMP280;37210;50.058;8.688;2023-08-06T01:49:15;99204.16;;;18.55
51149;BMP280;37210;50.058;8.688;2023-08-06T01:51:42;99182.13;;;18.54
51149;BMP280;37210;50.058;8.688;2023-08-06T01:54:11;99211.38;;;18.51
51149;BMP280;37210;50.058;8.688;2023-08-06T01:56:38;99214.56;;;18.76
51149;BMP280;37210;50.058;8.688;2023-08-06T01:59:06;99201.75;;;18.67
51149;BMP280;37210;50.058;8.688;2023-08-06T02:01:33;99202.81;;;18.09
51149;BMP280;37210;50.058;8.688;2023-08-06T02:04:01;99208.75;;;18.51
51149;BMP280;37210;50.058;8.688;2023-08-06T02:06:28;99198.34;;;18.82
51149;BMP280;37210;50.058;8.688;2023-08-06T02:08:56;99205.91;;;18.73
51149;BMP280;37210;50.058;8.688;2023-08-06T02:11:24;99199.88;;;18.69
51149;BMP280;37210;50.058;8.688;2023-08-06T02:13:53;99110.09;;;17.93
51149;BMP280;37210;50.058;8.688;2023-08-06T02:16:21;99176.84;;;18.71
51149;BMP280;37210;50.058;8.688;2023-08-06T02:18:48;99185.09;;;18.65
51149;BMP280;37210;50.058;8.688;2023-08-06T02:21:15;99184.09;;;18.85
51149;BMP280;37210;50.058;8.688;2023-08-06T02:23:43;99181.69;;;18.97
51149;BMP280;37210;50.058;8.688;2023-08-06T02:26:10;99174.31;;;19.04
51149;BMP280;37210;50.058;8.688;2023-08-06T02:28:39;99154.41;;;18.61
51149;BMP280;37210;50.058;8.688;2023-08-06T02:31:06;99164.84;;;18.64
51149;BMP280;37210;50.058;8.688;2023-08-06T02:33:36;99155.59;;;18.73
51149;BMP280;37210;50.058;8.688;2023-08-06T02:36:04;99151.69;;;18.80
51149;BMP280;37210;50.058;8.688;2023-08-06T02:38:32;99145.69;;;18.93
51149;BMP280;37210;50.058;8.688;2023-08-06T02:41:02;99147.06;;;19.00
51149;BMP280;37210;50.058;8.688;2023-08-06T02:43:30;99151.00;;;19.10
51149;BMP280;37210;50.058;8.688;2023-08-06T02:45:59;99153.47;;;18.96
51149;BMP280;37210;50.058;8.688;2023-08-06T02:48:27;99145.94;;;19.06
51149;BMP280;37210;50.058;8.688;2023-08-06T02:50:57;99152.88;;;18.91
51149;BMP280;37210;50.058;8.688;2023-08-06T02:53:27;99092.03;;;18.37
51149;BMP280;37210;50.058;8.688;2023-08-06T02:55:54;99144.69;;;18.96
51149;BMP280;37210;50.058;8.688;2023-08-06T02:58:28;99105.78;;;18.96
51149;BMP280;37210;50.058;8.688;2023-08-06T03:01:06;99148.25;;;18.95
51149;BMP280;37210;50.058;8.688;2023-08-06T03:03:42;99139.06;;;19.19
51149;BMP280;37210;50.058;8.688;2023-08-06T03:06:10;99132.03;;;19.18
51149;BMP280;37210;50.058;8.688;2023-08-06T03:08:44;99128.75;;;19.13
51149;BMP280;37210;50.058;8.688;2023-08-06T03:11:11;99132.50;;;19.09
51149;BMP280;37210;50.058;8.688;2023-08-06T03:13:40;99076.41;;;18.84
51149;BMP280;37210;50.058;8.688;2023-08-06T03:16:09;99116.47;;;19.28
51149;BMP280;37210;50.058;8.688;2023-08-06T03:18:37;99107.41;;;19.16
51149;BMP280;37210;50.058;8.688;2023-08-06T03:21:07;99107.72;;;18.59
51149;BMP280;37210;50.058;8.688;2023-08-06T03:23:34;99111.09;;;18.26
51149;BMP280;37210;50.058;8.688;2023-08-06T03:26:02;99112.91;;;18.79
51149;BMP280;37210;50.058;8.688;2023-08-06T03:28:31;99108.69;;;18.75
51149;BMP280;37210;50.058;8.688;2023-08-06T03:31:00;99102.94;;;18.67
51149;BMP280;37210;50.058;8.688;2023-08-06T03:33:35;99085.31;;;18.66
51149;BMP280;37210;50.058;8.688;2023-08-06T03:36:06;99106.81;;;18.77
51149;BMP280;37210;50.058;8.688;2023-08-06T03:38:34;99065.53;;;18.56
51149;BMP280;37210;50.058;8.688;2023-08-06T03:41:05;99111.72;;;18.84
51149;BMP280;37210;50.058;8.688;2023-08-06T03:43:33;99102.13;;;18.48
51149;BMP280;37210;50.058;8.688;2023-08-06T03:46:02;99095.69;;;18.70
51149;BMP280;37210;50.058;8.688;2023-08-06T03:48:30;99083.09;;;18.40
51149;BMP280;37210;50.058;8.688;2023-08-06T03:50:59;99088.50;;;18.55
51149;BMP280;37210;50.058;8.688;2023-08-06T03:53:28;99096.13;;;18.61
51149;BMP280;37210;50.058;8.688;2023-08-06T03:55:56;99060.88;;;18.61
51149;BMP280;37210;50.058;8.688;2023-08-06T03:58:26;99087.50;;;18.58
51149;BMP280;37210;50.058;8.688;2023-08-06T04:00:58;99090.38;;;18.53
51149;BMP280;37210;50.058;8.688;2023-08-06T04:03:29;99092.28;;;18.32
51149;BMP280;37210;50.058;8.688;2023-08-06T04:05:56;99090.31;;;18.36
51149;BMP280;37210;50.058;8.688;2023-08-06T04:08:25;99085.09;;;18.34
51149;BMP280;37210;50.058;8.688;2023-08-06T04:10:53;99087.19;;;18.28
51149;BMP280;37210;50.058;8.688;2023-08-06T04:13:20;99088.38;;;18.22
51149;BMP280;37210;50.058;8.688;2023-08-06T04:15:47;99089.06;;;18.26
51149;BMP280;37210;50.058;8.688;2023-08-06T04:18:15;99087.75;;;18.34
51149;BMP280;37210;50.058;8.688;2023-08-06T04:20:44;99091.94;;;18.21
51149;BMP280;37210;50.058;8.688;2023-08-06T04:23:11;99075.97;;;18.06
51149;BMP280;37210;50.058;8.688;2023-08-06T04:25:41;99081.81;;;18.48
51149;BMP280;37210;50.058;8.688;2023-08-06T04:28:09;99090.97;;;18.41
51149;BMP280;37210;50.058;8.688;2023-08-06T04:30:37;99084.78;;;18.23
51149;BMP280;37210;50.058;8.688;2023-08-06T04:33:05;99098.13;;;18.39
51149;BMP280;37210;50.058;8.688;2023-08-06T04:35:34;99058.25;;;17.89
51149;BMP280;37210;50.058;8.688;2023-08-06T04:38:01;99099.97;;;18.20
51149;BMP280;37210;50.058;8.688;2023-08-06T04:40:29;99090.97;;;18.05
51149;BMP280;37210;50.058;8.688;2023-08-06T04:42:58;99094.34;;;18.45
51149;BMP280;37210;50.058;8.688;2023-08-06T04:45:27;99098.88;;;18.24
51149;BMP280;37210;50.058;8.688;2023-08-06T04:47:55;99099.84;;;17.86
51149;BMP280;37210;50.058;8.688;2023-08-06T04:50:22;99099.44;;;18.30
51149;BMP280;37210;50.058;8.688;2023-08-06T04:52:50;99096.34;;;18.40
51149;BMP280;37210;50.058;8.688;2023-08-06T04:55:17;99108.25;;;18.31
51149;BMP280;37210;50.058;8.688;2023-08-06T04:57:45;99104.59;;;18.15
51149;BMP280;37210;50.058;8.688;2023-08-06T05:00:14;99111.00;;;18.47
51149;BMP280;37210;50.058;8.688;2023-08-06T05:02:41;99104.13;;;18.43
51149;BMP280;37210;50.058;8.688;2023-08-06T05:05:09;99103.84;;;18.30
51149;BMP280;37210;50.058;8.688;2023-08-06T05:07:36;99097.56;;;18.32
51149;BMP280;37210;50.058;8.688;2023-08-06T05:10:04;99089.91;;;18.45
51149;BMP280;37210;50.058;8.688;2023-08-06T05:12:32;99087.66;;;18.36
51149;BMP280;37210;50.058;8.688;2023-08-06T05:14:59;99094.97;;;18.14
51149;BMP280;37210;50.058;8.688;2023-08-06T05:17:28;99071.06;;;18.15
51149;BMP280;37210;50.058;8.688;2023-08-06T05:19:55;99089.09;;;18.43
51149;BMP280;37210;50.058;8.688;2023-08-06T05:22:23;99077.94;;;18.36
51149;BMP280;37210;50.058;8.688;2023-08-06T05:24:50;99092.47;;;18.64
51149;BMP280;37210;50.058;8.688;2023-08-06T05:27:18;99097.09;;;18.24
51149;BMP280;37210;50.058;8.688;2023-08-06T05:29:45;99093.31;;;18.47
51149;BMP280;37210;50.058;8.688;2023-08-06T05:32:13;99095.81;;;18.67
51149;BMP280;37210;50.058;8.688;2023-08-06T05:34:42;99065.72;;;18.34
51149;BMP280;37210;50.058;8.688;2023-08-06T05:37:09;99100.59;;;18.44
51149;BMP280;37210;50.058;8.688;2023-08-06T05:39:36;99107.94;;;18.37
51149;BMP280;37210;50.058;8.688;2023-08-06T05:42:04;99100.41;;;18.47
51149;BMP280;37210;50.058;8.688;2023-08-06T05:44:32;99102.94;;;18.31
51149;BMP280;37210;50.058;8.688;2023-08-06T05:47:00;99103.72;;;18.33
51149;BMP280;37210;50.058;8.688;2023-08-06T05:49:27;99105.19;;;18.03
51149;BMP280;37210;50.058;8.688;2023-08-06T05:51:56;99103.91;;;18.11
51149;BMP280;37210;50.058;8.688;2023-08-06T05:54:23;99098.66;;;18.28
51149;BMP280;37210;50.058;8.688;2023-08-06T05:56:51;99073.50;;;17.66
51149;BMP280;37210;50.058;8.688;2023-08-06T05:59:18;99103.56;;;17.82
51149;BMP280;37210;50.058;8.688;2023-08-06T06:01:46;99108.44;;;17.91
51149;BMP280;37210;50.058;8.688;2023-08-06T06:04:13;99109.63;;;18.02
51149;BMP280;37210;50.058;8.688;2023-08-06T06:06:40;99111.38;;;17.66
51149;BMP280;37210;50.058;8.688;2023-08-06T06:09:09;99104.47;;;18.18
51149;BMP280;37210;50.058;8.688;2023-08-06T06:11:37;99102.22;;;17.92
51149;BMP280;37210;50.058;8.688;2023-08-06T06:14:04;99094.28;;;17.92
51149;BMP280;37210;50.058;8.688;2023-08-06T06:16:32;99112.91;;;18.07
51149;BMP280;37210;50.058;8.688;2023-08-06T06:18:59;99116.38;;;17.91
51149;BMP280;37210;50.058;8.688;2023-08-06T06:21:26;99112.38;;;17.82
51149;BMP280;37210;50.058;8.688;2023-08-06T06:23:54;99118.91;;;18.11
51149;BMP280;37210;50.058;8.688;2023-08-06T06:26:23;99116.78;;;18.36
51149;BMP280;37210;50.058;8.688;2023-08-06T06:28:51;99117.84;;;18.51
51149;BMP280;37210;50.058;8.688;2023-08-06T06:31:18;99117.56;;;18.21
51149;BMP280;37210;50.058;8.688;2023-08-06T06:33:46;99110.13;;;18.46
51149;BMP280;37210;50.058;8.688;2023-08-06T06:36:13;99086.84;;;18.00
51149;BMP280;37210;50.058;8.688;2023-08-06T06:38:41;99089.97;;;18.08
51149;BMP280;37210;50.058;8.688;2023-08-06T06:41:08;99112.00;;;18.08
51149;BMP280;37210;50.058;8.688;2023-08-06T06:43:37;99099.56;;;18.10
51149;BMP280;37210;50.058;8.688;2023-08-06T06:46:05;99116.28;;;18.11
51149;BMP280;37210;50.058;8.688;2023-08-06T06:48:33;99107.50;;;18.27
51149;BMP280;37210;50.058;8.688;2023-08-06T06:51:00;99120.69;;;18.29
51149;BMP280;37210;50.058;8.688;2023-08-06T06:53:29;99086.47;;;18.07
51149;BMP280;37210;50.058;8.688;2023-08-06T06:56:01;99108.84;;;18.36
51149;BMP280;37210;50.058;8.688;2023-08-06T06:58:31;99110.84;;;18.14
51149;BMP280;37210;50.058;8.688;2023-08-06T07:00:59;99100.19;;;18.15
51149;BMP280;37210;50.058;8.688;2023-08-06T07:03:27;99111.81;;;18.30
51149;BMP280;37210;50.058;8.688;2023-08-06T07:05:57;99107.72;;;18.42
51149;BMP280;37210;50.058;8.688;2023-08-06T07:08:25;99110.38;;;18.59
51149;BMP280;37210;50.058;8.688;2023-08-06T07:11:00;99075.44;;;18.16
51149;BMP280;37210;50.058;8.688;2023-08-06T07:13:28;99090.59;;;18.13
51149;BMP280;37210;50.058;8.688;2023-08-06T07:15:56;99101.97;;;18.15
51149;BMP280;37210;50.058;8.688;2023-08-06T07:18:25;99074.88;;;18.10
51149;BMP280;37210;50.058;8.688;2023-08-06T07:20:54;99107.63;;;18.07
51149;BMP280;37210;50.058;8.688;2023-08-06T07:23:23;99111.84;;;18.11
51149;BMP280;37210;50.058;8.688;2023-08-06T07:25:51;99102.75;;;17.81
51149;BMP280;37210;50.058;8.688;2023-08-06T07:28:19;99118.03;;;17.93
51149;BMP280;37210;50.058;8.688;2023-08-06T07:30:47;99115.47;;;18.09
51149;BMP280;37210;50.058;8.688;2023-08-06T07:33:14;99123.66;;;18.04
51149;BMP280;37210;50.058;8.688;2023-08-06T07:35:43;99120.47;;;17.79
51149;BMP280;37210;50.058;8.688;2023-08-06T07:38:11;99065.28;;;17.72
51149;BMP280;37210;50.058;8.688;2023-08-06T07:40:38;99118.31;;;17.87
51149;BMP280;37210;50.058;8.688;2023-08-06T07:43:06;99106.28;;;17.80
51149;BMP280;37210;50.058;8.688;2023-08-06T07:45:34;99116.50;;;17.88
51149;BMP280;37210;50.058;8.688;2023-08-06T07:48:02;99091.50;;;17.95
51149;BMP280;37210;50.058;8.688;2023-08-06T07:50:31;99116.28;;;18.11
51149;BMP280;37210;50.058;8.688;2023-08-06T07:53:00;99102.00;;;18.32
51149;BMP280;37210;50.058;8.688;2023-08-06T07:55:27;99110.53;;;18.20
51149;BMP280;37210;50.058;8.688;2023-08-06T07:57:54;99113.28;;;18.54
51149;BMP280;37210;50.058;8.688;2023-08-06T08:00:22;99103.78;;;18.31
51149;BMP280;37210;50.058;8.688;2023-08-06T08:02:50;99064.31;;;18.27
51149;BMP280;37210;50.058;8.688;2023-08-06T08:05:17;99073.59;;;18.35
51149;BMP280;37210;50.058;8.688;2023-08-06T08:07:45;99068.09;;;18.04
51149;BMP280;37210;50.058;8.688;2023-08-06T08:10:13;99094.00;;;18.15
51149;BMP280;37210;50.058;8.688;2023-08-06T08:12:41;99091.53;;;18.48
51149;BMP280;37210;50.058;8.688;2023-08-06T08:15:09;99102.97;;;18.65
51149;BMP280;37210;50.058;8.688;2023-08-06T08:17:36;99095.50;;;18.90
51149;BMP280;37210;50.058;8.688;2023-08-06T08:20:05;99048.13;;;18.84
51149;BMP280;37210;50.058;8.688;2023-08-06T08:22:33;99080.22;;;19.28
51149;BMP280;37210;50.058;8.688;2023-08-06T08:25:00;99086.00;;;19.69
51149;BMP280;37210;50.058;8.688;2023-08-06T08:27:30;99065.59;;;19.54
51149;BMP280;37210;50.058;8.688;2023-08-06T08:29:57;99093.25;;;19.81
51149;BMP280;37210;50.058;8.688;2023-08-06T08:32:25;99080.09;;;19.79
51149;BMP280;37210;50.058;8.688;2023-08-06T08:34:52;99075.66;;;20.41
51149;BMP280;37210;50.058;8.688;2023-08-06T08:37:20;99054.13;;;20.61
51149;BMP280;37210;50.058;8.688;2023-08-06T08:39:47;99068.56;;;20.71
51149;BMP280;37210;50.058;8.688;2023-08-06T08:42:15;99039.63;;;20.95
51149;BMP280;37210;50.058;8.688;2023-08-06T08:44:44;99071.94;;;21.03
51149;BMP280;37210;50.058;8.688;2023-08-06T08:47:12;99054.78;;;21.36
51149;BMP280;37210;50.058;8.688;2023-08-06T08:49:42;99022.81;;;20.66
51149;BMP280;37210;50.058;8.688;2023-08-06T08:52:11;99058.59;;;21.18
51149;BMP280;37210;50.058;8.688;2023-08-06T08:54:43;99038.56;;;21.68
51149;BMP280;37210;50.058;8.688;2023-08-06T08:57:13;99040.34;;;21.95
51149;BMP280;37210;50.058;8.688;2023-08-06T08:59:40;99044.94;;;22.33
51149;BMP280;37210;50.058;8.688;2023-08-06T09:02:11;99041.50;;;22.18
51149;BMP280;37210;50.058;8.688;2023-08-06T09:04:40;99024.19;;;21.98
51149;BMP280;37210;50.058;8.688;2023-08-06T09:07:11;99030.75;;;22.19
51149;BMP280;37210;50.058;8.688;2023-08-06T09:09:47;98989.31;;;22.28
51149;BMP280;37210;50.058;8.688;2023-08-06T09:12:16;99010.00;;;22.76
51149;BMP280;37210;50.058;8.688;2023-08-06T09:14:44;99029.63;;;22.88
51149;BMP280;37210;50.058;8.688;2023-08-06T09:17:13;99023.34;;;23.01
51149;BMP280;37210;50.058;8.688;2023-08-06T09:19:42;99001.56;;;22.82
51149;BMP280;37210;50.058;8.688;2023-08-06T09:22:13;99009.78;;;22.67
51149;BMP280;37210;50.058;8.688;2023-08-06T09:24:41;99010.31;;;21.93
51149;BMP280;37210;50.058;8.688;2023-08-06T09:27:12;99042.66;;;22.53
51149;BMP280;37210;50.058;8.688;2023-08-06T09:29:41;99026.97;;;22.36
51149;BMP280;37210;50.058;8.688;2023-08-06T09:32:12;99042.56;;;22.15
51149;BMP280;37210;50.058;8.688;2023-08-06T09:34:42;99037.56;;;20.86
51149;BMP280;37210;50.058;8.688;2023-08-06T09:37:10;99044.13;;;20.50
51149;BMP280;37210;50.058;8.688;2023-08-06T09:39:39;99038.88;;;20.19
51149;BMP280;37210;50.058;8.688;2023-08-06T09:42:10;99041.34;;;20.38
51149;BMP280;37210;50.058;8.688;2023-08-06T09:44:40;99008.56;;;19.30
51149;BMP280;37210;50.058;8.688;2023-08-06T09:47:08;99031.63;;;20.52
51149;BMP280;37210;50.058;8.688;2023-08-06T09:49:43;99039.63;;;20.95
51149;BMP280;37210;50.058;8.688;2023-08-06T09:52:12;99032.00;;;20.60
51149;BMP280;37210;50.058;8.688;2023-08-06T09:54:43;99049.22;;;20.83
51149;BMP280;37210;50.058;8.688;2023-08-06T09:57:11;99057.44;;;20.64
51149;BMP280;37210;50.058;8.688;2023-08-06T09:59:41;99064.38;;;20.67
51149;BMP280;37210;50.058;8.688;2023-08-06T10:02:12;99064.41;;;20.51
51149;BMP280;37210;50.058;8.688;2023-08-06T10:04:44;99061.38;;;20.28
51149;BMP280;37210;50.058;8.688;2023-08-06T10:07:12;99063.13;;;20.58
51149;BMP280;37210;50.058;8.688;2023-08-06T10:09:41;99059.88;;;20.53
51149;BMP280;37210;50.058;8.688;2023-08-06T10:12:09;99048.69;;;20.48
51149;BMP280;37210;50.058;8.688;2023-08-06T10:14:38;99054.94;;;20.61
51149;BMP280;37210;50.058;8.688;2023-08-06T10:17:07;99012.91;;;20.54
51149;BMP280;37210;50.058;8.688;2023-08-06T10:19:36;99052.63;;;20.85
51149;BMP280;37210;50.058;8.688;2023-08-06T10:22:23;99056.06;;;21.01
51149;BMP280;37210;50.058;8.688;2023-08-06T10:24:55;99053.94;;;20.78
51149;BMP280;37210;50.058;8.688;2023-08-06T10:27:28;99045.88;;;21.23
51149;BMP280;37210;50.058;8.688;2023-08-06T10:30:21;99009.69;;;21.07
51149;BMP280;37210;50.058;8.688;2023-08-06T10:32:49;99041.22;;;21.27
51149;BMP280;37210;50.058;8.688;2023-08-06T10:35:29;99036.59;;;21.71
51149;BMP280;37210;50.058;8.688;2023-08-06T10:38:00;99040.75;;;21.89
51149;BMP280;37210;50.058;8.688;2023-08-06T10:40:31;99037.53;;;21.70
51149;BMP280;37210;50.058;8.688;2023-08-06T10:42:59;99036.34;;;22.02
51149;BMP280;37210;50.058;8.688;2023-08-06T10:45:27;99033.13;;;21.97
51149;BMP280;37210;50.058;8.688;2023-08-06T10:47:57;98995.69;;;21.86
51149;BMP280;37210;50.058;8.688;2023-08-06T10:50:25;99048.38;;;22.35
51149;BMP280;37210;50.058;8.688;2023-08-06T10:52:53;99041.94;;;22.24
51149;BMP280;37210;50.058;8.688;2023-08-06T10:55:24;99042.44;;;22.44
51149;BMP280;37210;50.058;8.688;2023-08-06T10:57:53;99040.84;;;22.54
51149;BMP280;37210;50.058;8.688;2023-08-06T11:00:22;99056.25;;;22.63
51149;BMP280;37210;50.058;8.688;2023-08-06T11:02:51;99040.78;;;22.68
51149;BMP280;37210;50.058;8.688;2023-08-06T11:05:20;99021.84;;;22.85
51149;BMP280;37210;50.058;8.688;2023-08-06T11:07:48;99034.75;;;23.16
51149;BMP280;37210;50.058;8.688;2023-08-06T11:10:17;99028.50;;;23.66
51149;BMP280;37210;50.058;8.688;2023-08-06T11:12:46;99030.25;;;23.91
51149;BMP280;37210;50.058;8.688;2023-08-06T11:15:13;99021.41;;;24.14
51149;BMP280;37210;50.058;8.688;2023-08-06T11:17:41;99016.75;;;24.05
51149;BMP280;37210;50.058;8.688;2023-08-06T11:20:09;99020.91;;;24.09
51149;BMP280;37210;50.058;8.688;2023-08-06T11:22:37;99022.38;;;24.13
51149;BMP280;37210;50.058;8.688;2023-08-06T11:25:06;99021.66;;;23.98
51149;BMP280;37210;50.058;8.688;2023-08-06T11:27:34;99023.06;;;24.04
51149;BMP280;37210;50.058;8.688;2023-08-06T11:30:04;99026.06;;;23.87
51149;BMP280;37210;50.058;8.688;2023-08-06T11:32:32;99029.56;;;24.00
51149;BMP280;37210;50.058;8.688;2023-08-06T11:35:09;99037.56;;;24.00
51149;BMP280;37210;50.058;8.688;2023-08-06T11:37:39;99039.56;;;22.86
51149;BMP280;37210;50.058;8.688;2023-08-06T11:40:11;99051.59;;;23.17
51149;BMP280;37210;50.058;8.688;2023-08-06T11:42:38;99055.44;;;22.75
51149;BMP280;37210;50.058;8.688;2023-08-06T11:45:08;99069.16;;;22.69
51149;BMP280;37210;50.058;8.688;2023-08-06T11:47:38;99059.97;;;22.60
51149;BMP280;37210;50.058;8.688;2023-08-06T11:50:06;99073.72;;;22.27
51149;BMP280;37210;50.058;8.688;2023-08-06T11:52:39;99079.25;;;22.24
51149;BMP280;37210;50.058;8.688;2023-08-06T11:55:09;99074.72;;;21.86
51149;BMP280;37210;50.058;8.688;2023-08-06T11:57:37;99096.47;;;21.92
51149;BMP280;37210;50.058;8.688;2023-08-06T12:00:08;99095.25;;;21.84
51149;BMP280;37210;50.058;8.688;2023-08-06T12:02:44;99088.31;;;21.25
51149;BMP280;37210;50.058;8.688;2023-08-06T12:05:14;99150.00;;;20.86
51149;BMP280;37210;50.058;8.688;2023-08-06T12:07:45;99140.19;;;19.96
51149;BMP280;37210;50.058;8.688;2023-08-06T12:10:13;99141.84;;;20.59
51149;BMP280;37210;50.058;8.688;2023-08-06T12:12:42;99145.34;;;20.76
51149;BMP280;37210;50.058;8.688;2023-08-06T12:15:11;99148.47;;;20.82
51149;BMP280;37210;50.058;8.688;2023-08-06T12:17:38;99145.75;;;20.54
51149;BMP280;37210;50.058;8.688;2023-08-06T12:20:07;99144.19;;;20.03
51149;BMP280;37210;50.058;8.688;2023-08-06T12:22:36;99164.28;;;20.40
51149;BMP280;37210;50.058;8.688;2023-08-06T12:25:05;99166.06;;;20.24
51149;BMP280;37210;50.058;8.688;2023-08-06T12:27:34;99172.16;;;20.41
51149;BMP280;37210;50.058;8.688;2023-08-06T12:30:03;99176.44;;;20.28
51149;BMP280;37210;50.058;8.688;2023-08-06T12:32:33;99186.13;;;20.29
51149;BMP280;37210;50.058;8.688;2023-08-06T12:35:01;99158.09;;;20.24
51149;BMP280;37210;50.058;8.688;2023-08-06T12:37:30;99202.38;;;20.54
51149;BMP280;37210;50.058;8.688;2023-08-06T12:39:57;99202.75;;;20.48
51149;BMP280;37210;50.058;8.688;2023-08-06T12:42:25;99195.84;;;20.44
51149;BMP280;37210;50.058;8.688;2023-08-06T12:44:52;99194.06;;;20.45
51149;BMP280;37210;50.058;8.688;2023-08-06T12:47:20;99221.31;;;20.64
51149;BMP280;37210;50.058;8.688;2023-08-06T12:49:49;99174.13;;;20.38
51149;BMP280;37210;50.058;8.688;2023-08-06T12:52:16;99223.69;;;20.68
51149;BMP280;37210;50.058;8.688;2023-08-06T12:54:45;99224.22;;;20.59
51149;BMP280;37210;50.058;8.688;2023-08-06T12:57:13;99232.78;;;20.64
51149;BMP280;37210;50.058;8.688;2023-08-06T12:59:40;99215.22;;;20.78
51149;BMP280;37210;50.058;8.688;2023-08-06T13:02:08;99238.69;;;20.85
51149;BMP280;37210;50.058;8.688;2023-08-06T13:04:35;99238.88;;;20.66
51149;BMP280;37210;50.058;8.688;2023-08-06T13:07:04;99241.75;;;21.09
51149;BMP280;37210;50.058;8.688;2023-08-06T13:09:32;99252.56;;;20.75
51149;BMP280;37210;50.058;8.688;2023-08-06T13:12:00;99258.06;;;20.87
51149;BMP280;37210;50.058;8.688;2023-08-06T13:14:31;99262.88;;;20.49
51149;BMP280;37210;50.058;8.688;2023-08-06T13:16:58;99264.59;;;20.50
51149;BMP280;37210;50.058;8.688;2023-08-06T13:19:26;99267.91;;;20.38
51149;BMP280;37210;50.058;8.688;2023-08-06T13:22:04;99278.03;;;20.47
51149;BMP280;37210;50.058;8.688;2023-08-06T13:24:34;99274.44;;;20.64
51149;BMP280;37210;50.058;8.688;2023-08-06T13:27:02;99189.25;;;20.05
51149;BMP280;37210;50.058;8.688;2023-08-06T13:29:29;99288.91;;;20.43
51149;BMP280;37210;50.058;8.688;2023-08-06T13:31:56;99287.81;;;20.62
51149;BMP280;37210;50.058;8.688;2023-08-06T13:34:24;99265.06;;;20.26
51149;BMP280;37210;50.058;8.688;2023-08-06T13:36:51;99306.47;;;20.45
51149;BMP280;37210;50.058;8.688;2023-08-06T13:39:20;99302.19;;;20.43
51149;BMP280;37210;50.058;8.688;2023-08-06T13:41:47;99308.38;;;20.43
51149;BMP280;37210;50.058;8.688;2023-08-06T13:44:14;99311.84;;;20.11
51149;BMP280;37210;50.058;8.688;2023-08-06T13:46:42;99307.50;;;20.27
51149;BMP280;37210;50.058;8.688;2023-08-06T13:49:09;99308.19;;;20.31
51149;BMP280;37210;50.058;8.688;2023-08-06T13:51:37;99316.50;;;20.40
51149;BMP280;37210;50.058;8.688;2023-08-06T13:54:05;99310.25;;;20.41
51149;BMP280;37210;50.058;8.688;2023-08-06T13:56:34;99305.09;;;20.38
51149;BMP280;37210;50.058;8.688;2023-08-06T13:59:04;99324.97;;;20.47
51149;BMP280;37210;50.058;8.688;2023-08-06T14:01:34;99304.38;;;20.19
51149;BMP280;37210;50.058;8.688;2023-08-06T14:04:04;99266.63;;;19.97
51149;BMP280;37210;50.058;8.688;2023-08-06T14:06:38;99320.63;;;20.46
51149;BMP280;37210;50.058;8.688;2023-08-06T14:09:05;99327.28;;;20.37
51149;BMP280;37210;50.058;8.688;2023-08-06T14:11:37;99324.78;;;20.34
51149;BMP280;37210;50.058;8.688;2023-08-06T14:14:05;99338.16;;;20.33
51149;BMP280;37210;50.058;8.688;2023-08-06T14:16:34;99341.31;;;20.24
51149;BMP280;37210;50.058;8.688;2023-08-06T14:19:04;99332.00;;;20.32